Terminal Aerodrome Forecast
Issued by NWS

Current Version | Previous Version | Text Only | Print | Product List | Glossary Off
Versions: 1 2 3 4 5 6 7 8 9 10 11 12 13 14 15 16 17 18 19 20 21 22 23

849
FTUS41 KRLX 142324
TAFCKB
TAF
KCKB 142324Z 1500/1524 29004KT P6SM SCT022 OVC030
     FM151600 24006KT P6SM BKN035
     FM152300 25011G19KT P6SM BKN250=

USA.gov is the U.S. government's official web portal to all federal, state and local government web resources and services.